Flight Number: AVA4052 Duration: 1:45
Departure: Bombay (VABB) at 06:30 Distance: 614.307 Nm
Arrival: New Dehli Gandhi Intl (VIDP) at 08:15 Equipment: B737

Weather Information
Bombay / Santacruz, India (VABB) 19-07N 072-51E 14M Feb 27, 2024 - 11:30 AM EST / 2024.02.27 1630 UTC
Wind: from the NNW (330 degrees) at 5 MPH (4 KT):0
Visibility: 1 mile(s):0 Weather: smoke Temperature: 84 F (29 C) Dew Point: 50 F (10 C) Relative Humidity: 30% Pressure (altimeter): 29.91 in. Hg (1013 hPa)
ob: VABB 271630Z 33004KT 2500 FU NSC 29/10 Q1013 NOSIG cycle: 16
Sunrise: 01:31 Sunset: 13:10 (UTC)

New Delhi / Palam, India (VIDP) 28-34N 077-07E 233M Feb 27, 2024 - 11:30 AM EST / 2024.02.27 1630 UTC
Wind: from the W (280 degrees) at 6 MPH (5 KT):0
Visibility: 1 mile(s):0 Weather: haze Temperature: 62 F (17 C) Dew Point: 51 F (11 C) Relative Humidity: 67% Pressure (altimeter): 30.06 in. Hg (1018 hPa)
ob: VIDP 271630Z 28005KT 2800 HZ NSC 17/11 Q1018 NOSIG cycle: 16
Sunrise: 01:21 Sunset: 12:47 (UTC)

TAF:2024/02/27 12:27 TAF VIDP 271100Z 2712/2818 32006KT 4000 HZ FEW100 BECMG 2718/2720 3000 HZ BECMG 2800/2802 32004KT 2000 HZ BR FEW035 SCT100 BECMG 2804/2806 29006KT 3000 HZ FEW100 BECMG 2815/2817 VRB02KT 3000 HZ

Previous Pireps for this route
Date Flightnr Aircraft Flight time Fuel used Landing rate On time
2015-04-11AVA4052B73701.5611155-232No
2016-04-26AVA4052B73701.479523-208No
2017-08-29AVA4052B73701.5610971-277Yes
2022-04-12AVA4052B73701.439324-181Yes
(pireps marked green are flown by you)

Route map